Extreme weather reports worldwide

Snow

Station
 
Location
 
Name
 
Wind
Knots
Gust
Knots
Vis
SM
Temp/Dew
C
Baro
inHg
METAR
 
YHI CYHI Ulukhaktok, CA Ulukhaktok Holman Airport 21 27 15 -7/-10 30.33 CYHI 211900Z 33021G27KT 15SM DRSN VCBLSN BKN100 BKN190 M07/M10 A3033 RMK BLSN1AC4AC2 VIS N 3 / BLSN N STTN SLP276
YVQ CYVQ Norman Wells, CA Norman Wells Airport 18 25 5 -5/-8 30.63 CYVQ 211900Z 29018G25KT 5SM -SN DRSN FEW012 BKN022 BKN034 OVC067 M05/M08 A3063 RMK SC2SC3SC2AC1 SLP380
YHY CYHY Hay River, CA Hay River / Merlyn Carter Airport 16 23 3 -4/-6 30.37 CYHY 211900Z 32016G23KT 3SM -SN DRSN SCT015 BKN024 OVC030 M04/M06 A3037 RMK SC4SC3SC1 SLP299
ZFN CZFN Tulita, CA Tulita Airport 13 19 3 -5/-8 30.58 CZFN 211900Z 30013G19KT 3SM -SN SCT014 OVC070 M05/M08 A3058 RMK ST4AC4 SLP368
CZVL Edmonton, CA Edmonton / Villeneuve Airport 10 17 9 -4/-10 30.24 CZVL 211929Z AUTO 33010G17KT 9SM -SN OVC039 M04/M10 A3024 RMK SLP281

Station
 
Location
 
Name
 
Wind
Knots
Gust
Knots
Vis
SM
Temp/Dew
C
Baro
inHg
METAR
 
YZU CYZU Whitecourt, CA Whitecourt Airport 10 17 15 -7/-13 30.28 CYZU 211900Z 33010G17KT 15SM -SN OVC031 M07/M13 A3028 RMK SC8 SLP300
YCK CYVL Colville Lake, CA Tommy Kochon Airport 10 15 6 -7/-9 30.51 CYVL 211928Z AUTO 33010G15KT 6SM -SN FEW019 BKN048 BKN055 OVC068 M07/M09 A3051 RMK SLP361
YET CYET Edson, CA Edson Airport 9 15 9 -8/-12 30.27 CYET 211913Z AUTO 32009G15KT 9SM -SN OVC028 M08/M12 A3027 RMK SLP305
TNM SCRM Isla Rey Jorge, AQ Teniente Rodolfo Marsh Martin Base 32 0.62 0/0 29.35 SCRM 211900Z 33032KT 1000 DRSN BR BKN002 OVC008 M00/M00 Q0994 NOSIG
YZG CYZG Salluit, CA Salluit Airport 26 5 -2/-4 29.85 CYZG 211900Z 21026KT 5SM -SN BLSN SCT008 BKN027 BKN068 M02/M04 A2985 RMK BLSN2ST3SC2AS2 VIS-10SM NE/ SNW CVR/TRACELOOSE/LAST STFD OBS/NEXT221200 UTC SLP128
YHK CYHK Gjoa Haven, CA Gjoa Haven Airport 24 14 -3/-4 29.66 CYHK 211900Z 01024KT 14SM -SN DRSN BKN016 OVC024 M03/M04 A2966 RMK SC5SC3 SLP051
CTB KCTB Cut Bank, US Cut Bank International Airport 23 3 -3/-7 29.92 KCTB 211916Z AUTO 33023KT 3SM -SN FEW013 SCT021 OVC029 M04/M07 A2992 RMK AO2 PK WND 33027/1916 P0000 T10391072 $
YCO CYCO Kugluktuk, CA Kugluktuk Airport 22 15 -3/-5 30.26 CYCO 211900Z 34022KT 15SM -SN DRSN SCT019 OVC058 M03/M05 A3026 RMK SC4SC4 SLP251
K1HM 21 0.75 -2/-3 29.88 K1HM 211858Z AUTO 34021KT 3/4SM -SHSN BKN016 M02/M04 A2988 RMK AO2 PK WND 33030/17 VIS 3/4V10 SHRAB1755E1756SHSNB17 CIG 012V016 SLP156 T10211037 $
YSY CYSY Sachs Harbour, CA Sachs Harbour (David Nasogaluak Jr. Saaryuaq) Airport 19 2 -5/-6 30.40 CYSY 211912Z 30019KT 2SM -SN BR BKN006 OVC035 M05/M06 A3040 RMK FG2ST3SC3 CIG RAG/ VIS VRB 1 TO 4 MILES SLP307
YZH CYZH Slave Lake, CA Slave Lake Airport 18 9 -5/-10 30.28 CYZH 211924Z AUTO 28018KT 9SM -SN FEW024 OVC039 M05/M10 A3028 RMK SLP291
YRT CYRT Rankin Inlet, CA Rankin Inlet Airport 18 4 -3/-6 29.69 CYRT 211900Z 28018KT 4SM -SN BR DRSN SCT012 BKN037 BKN270 M03/M06 A2969 RMK SC4SC1CI2 SLP058
YGT CYGT Igloolik, CA Igloolik Airport 17 5 -2/-3 29.48 CYGT 211900Z 12017KT 5SM -SN DRSN SCT011 OVC014 M02/M03 A2948 RMK SC4SC4 SLP989
YCS CYCS Chesterfield Inlet, CA Chesterfield Inlet Airport 17 15 -4/-6 29.65 CYCS 211900Z 25017KT 15SM -SN SCT035 OVC070 M04/M06 A2965 RMK SC4AC4 SLP042
YBK CYBK Baker Lake, CA Baker Lake Airport 17 5 -3/-5 29.68 CYBK 211900Z 30017KT 5SM -SN DRSN OVC031 M03/M05 A2968 RMK SC8 SLP054
YBB CYBB Kugaaruk, CA Kugaaruk Airport 17 12 -3/-4 29.48 CYBB 211900Z 03017KT 12SM -SN BKN010 M03/M04 A2948 RMK ST6 SLP986
YCB CYCB Cambridge Bay, CA Cambridge Bay Airport 17 4 -11/-13 29.98 CYCB 211923Z 36017KT 4SM BLSN FEW012 SCT042 BKN076 M11/M13 A2998 RMK SC1SC2AC2 SLP157
YTE CYTE Cape Dorset, CA Cape Dorset Airport 17 6 -1/-3 29.72 CYTE 211900Z 23017KT 6SM -SN DRSN FEW009 BKN015 OVC024 M01/M03 A2972 RMK SF1SC5SC2 SLP070
YYC CYYC Calgary, CA Calgary International Airport 16 1.75 -4/-6 30.09 CYYC 211900Z 36016KT 1 3/4SM -SN FEW010 VV013 M04/M06 A3009 RMK CF1SN8 CF TR SLP251
YQL CYQL Lethbridge, CA Lethbridge County Airport 15 0.75 -3/-4 30.02 CYQL 211929Z 01015KT 3/4SM -SN BR DRSN BKN006 OVC014 M03/M04 A3002 RMK SC6SC2 SLP212
CYBW Calgary, CA Calgary / Springbank Airport 15 1 -4/-7 30.08 CYBW 211900Z AUTO 36015KT 1SM R35/5500FT/N -SN VV015 M04/M07 A3008 RMK SLP249
OUL EFOU Oulu / Oulunsalo, FI Oulu Airport 15 1.74 0/-1 29.70 EFOU 211920Z AUTO 12015KT 2800 SN OVC005 M00/M01 Q1006
SCC PASC Deadhorse, US Deadhorse Airport 14 3 -2/-5 30.52 PASC 211906Z 23014KT 3SM -SN BR FEW035 BKN044 OVC060 M03/M06 A3052 RMK AO2 P0000 T10281056
YUX CYUX Hall Beach, CA Hall Beach Airport 14 8 -1/-2 29.47 CYUX 211900Z 16014KT 8SM -SN BKN011 BKN022 M01/M02 A2947 RMK ST5SC2 SLP982
AKP PAKP Anaktuvuk Pass, US Anaktuvuk Pass Airport 14 4 -12/-14 30.53 PAKP 211856Z AUTO 18014KT 4SM -SN BR FEW095 M13/M14 A3053 RMK AO2 SLP408 P0000 T11281144 FZRANO
YQF CYQF Red Deer, CA Red Deer Regional Airport 14 4 -4/-7 30.16 CYQF 211900Z 36014KT 4SM -SN BKN014 OVC030 M04/M07 A3016 RMK SF6SC2 SLP265
YPC CYPC Paulatuk, CA Paulatuk (Nora Aliqatchialuk Ruben) Airport 14 15 -3/-5 30.51 CYPC 211900Z 33014KT 15SM -SN OVC021 M03/M05 A3051 RMK SC8 SLP334
UUK PAKU Kuparuk, US Ugnu-Kuparuk Airport 13 2 -2/-2 30.51 PAKU 211847Z 23013KT 2SM R24/P6000FT -SN OVC020 M02/M02 A3051
YPE CYPE Peace River, CA Peace River Airport 13 15 -8/-14 30.37 CYPE 211900Z 34013KT 15SM -SN OVC030 M08/M14 A3037 RMK SC8 SLP329
YUD CYMU Umiujaq, CA Umiujaq Airport 12 15 0/-1 30.15 CYMU 211900Z 16012KT 15SM -SHSN FEW007 BKN018 BKN220 M00/M01 A3015 RMK ST1ST6CI1 CI TR CIG VRB 16-20 SLP217
SFJ BGSF Kangerlussuaq, GL Kangerlussuaq Airport 12 0/-2 29.76 BGSF 211850Z AUTO 25012KT 9999NDV -SN FEW013/// SCT023/// BKN027/// OVC042/// M00/M02 Q1008
PIR KPIR Pierre, US Pierre Regional Airport 12 3 0/-2 30.07 KPIR 211910Z AUTO 10012KT 3SM -SN BR SCT004 BKN013 OVC043 M01/M02 A3007 RMK AO2 P0000 T10061022
NBC UWKE Nizhnekamsk, RU Begishevo Airport 12 6.21 0/-4 29.85 UWKE 211900Z 28006MPS 9999 -SHSN BKN029CB 00/M04 Q1011 WS R21 R21/090070 NOSIG RMK QFE742/0989
YXJ CYXJ Fort St.John, CA Fort St John Airport 12 15 -9/-14 30.41 CYXJ 211900Z 34012KT 15SM -SN OVC028 M09/M14 A3041 RMK SC8 SLP351
PEE USPP Perm, RU Bolshoye Savino Airport 12 6.21 -1/-2 29.70 USPP 211900Z 28006MPS 9999 -SHSN BKN016CB M01/M02 Q1006 R21/290150 NOSIG RMK QFE744
KAJ EFKI Kajaani, FI Kajaani Airport 12 2.17 -1/-2 29.79 EFKI 211920Z AUTO 11012KT 080V150 3500 -SN BKN007 OVC020 M01/M02 Q1009
YRA CYRA Gamètì, CA Rae Lakes Airport 11 15 -5/-7 30.34 CYRA 211926Z 32011KT 15SM -SN BKN015 BKN050 M05/M07 A3034 RMK ST5SC2 SLP295
YLT CYLT Alert, CA Alert Airport 11 1 -12/-13 29.78 CYLT 211926Z 31011KT 1SM -SN OVC003 M12/M13 A2978 RMK SN6ST2 VIS VRB 3/4-1 1/4 SLP089
YZS CYZS Coral Harbour, CA Coral Harbour Airport 11 15 -4/-6 29.63 CYZS 211900Z 23011KT 15SM -SN FEW021 SCT035 BKN220 M04/M06 A2963 RMK SC1SC2CS4 SLP040
NUI PAQT Nuiqsut, US Nuiqsut Airport 11 6 -2/-3 30.52 PAQT 211853Z 16011KT 6SM -SN BR FEW020 OVC027 M02/M03 A3052 RMK (SCC FSS)
KUO EFKU Kuopio / Siilinjärvi, FI Kuopio Airport 11 6.21 1/0 29.79 EFKU 211920Z AUTO 13011KT 100V160 9999 -SN OVC007 01/00 Q1009
KEM EFKE Kemi / Tornio, FI Kemi-Tornio Airport 11 1.12 -2/-3 29.73 EFKE 211920Z AUTO 09011KT 1800 1400 R18/1900D SN OVC012 M02/M03 Q1007
YLC CYLC Kimmirut, CA Kimmirut Airport 10 15 -1/-3 29.95 CYLC 211900Z 21010KT 15SM -SN BKN012 OVC020 M01/M03 A2995 RMK ST3SC5 SLP148
YAH CYAH La Grande-4, CA La Grande-4 Airport 10 9 0/-3 30.09 CYAH 211926Z AUTO 09010KT 9SM -SN FEW015 BKN022 OVC060 M00/M03 A3009 RMK SLP211
DQH PALP Nuiqsut, US Alpine Airstrip 10 7 -2/-3 30.50 PALP 211845Z 20010KT 7SM -SN OVC017 M02/M03 A3050